Time;durP1;ratioP1;P1;durP2;ratioP2;P2;SDS_P1;SDS_P2;PMS_P1;PMS_P2;Temp;Humidity;BMP_temperature;BMP_pressure;BME280_temperature;BME280_humidity;BME280_pressure;Samples;Min_cycle;Max_cycle;Signal;HPM_P1;HPM_P2
2021/03/16 00:00:27;;;;;;;22.60;16.63;;;102.40;2227.20;;;;;;4966029;28;20030;-79
2021/03/16 00:02:53;;;;;;;22.92;18.48;;;77.70;2227.20;;;;;;4965523;28;20018;-79
2021/03/16 00:05:21;;;;;;;25.13;20.00;;;77.70;2227.20;;;;;;4964100;28;20007;-80
2021/03/16 00:07:53;;;;;;;21.83;17.02;;;77.70;2227.20;;;;;;4976986;28;20098;-81
2021/03/16 00:10:39;;;;;;;38.58;23.17;;;77.70;2227.20;;;;;;4992965;28;20050;-81
2021/03/16 00:13:26;;;;;;;25.30;18.70;;;77.70;2227.20;;;;;;4976717;28;20504;-81
2021/03/16 00:16:11;;;;;;;20.75;16.38;;;77.70;2227.20;;;;;;4978805;28;20078;-81
2021/03/16 00:18:40;;;;;;;21.67;16.70;;;77.70;2227.20;;;;;;4970956;29;20054;-81
2021/03/16 00:21:13;;;;;;;32.20;21.98;;;77.70;2227.20;;;;;;4981787;28;20069;-81
2021/03/16 00:23:46;;;;;;;23.83;18.02;;;77.60;2227.20;;;;;;4994057;28;20031;-81
2021/03/16 00:26:37;;;;;;;23.80;18.27;;;77.60;2227.20;;;;;;5014024;28;20053;-81
2021/03/16 00:29:56;;;;;;;22.05;17.20;;;77.60;2227.20;;;;;;5016450;28;20033;-81
2021/03/16 00:33:02;;;;;;;25.25;18.33;;;77.60;2227.20;;;;;;5029612;28;20030;-81
2021/03/16 00:35:53;;;;;;;21.50;16.27;;;77.60;2227.20;;;;;;5008924;28;20412;-82
2021/03/16 00:39:00;;;;;;;22.65;17.83;;;77.40;2227.20;;;;;;4982494;28;20291;-81
2021/03/16 00:42:33;;;;;;;21.27;16.13;;;77.40;2227.20;;;;;;4985851;28;20030;-81
2021/03/16 00:46:10;;;;;;;23.67;18.80;;;77.40;2227.20;;;;;;4942887;29;20024;-81
2021/03/16 00:49:21;;;;;;;22.38;17.85;;;77.40;2227.20;;;;;;4965294;29;20103;-82
2021/03/16 00:52:41;;;;;;;21.48;17.15;;;77.40;2227.20;;;;;;4966116;29;20051;-81
2021/03/16 00:55:42;;;;;;;24.92;19.48;;;77.40;2227.20;;;;;;4973598;29;20027;-81
2021/03/16 00:58:42;;;;;;;22.23;17.83;;;77.30;2227.20;;;;;;4973751;29;20058;-81
2021/03/16 01:02:01;;;;;;;31.75;21.88;;;77.30;2227.20;;;;;;4974308;29;20070;-81
2021/03/16 01:08:27;;;;;;;32.58;21.15;;;77.20;2227.20;;;;;;4975655;29;20088;-82
2021/03/16 01:14:55;;;;;;;23.73;18.88;;;77.20;2227.20;;;;;;4975399;28;20038;-81
2021/03/16 01:17:50;;;;;;;;;;;77.10;2227.20;;;;;;4996741;28;20058;-81
2021/03/16 01:21:04;;;;;;;26.20;18.85;;;77.20;2227.20;;;;;;4994918;28;19906;-82
2021/03/16 01:41:00;;;;;;;22.08;16.92;;;77.10;2227.20;;;;;;4976464;28;20066;-82
2021/03/16 01:44:09;;;;;;;22.23;16.27;;;77.10;2227.20;;;;;;4942411;29;20060;-82
2021/03/16 01:48:08;;;;;;;18.63;13.35;;;77.10;2227.20;;;;;;4955624;29;20028;-81
2021/03/16 01:51:39;;;;;;;16.80;14.45;;;77.10;2227.20;;;;;;4936922;29;20056;-82
2021/03/16 01:55:18;;;;;;;21.25;17.20;;;77.10;2227.20;;;;;;4867635;29;20045;-81
2021/03/16 01:58:34;;;;;;;18.95;15.18;;;77.10;2227.20;;;;;;4816170;29;20071;-82
2021/03/16 02:04:44;;;;;;;24.83;18.67;;;77.00;2227.20;;;;;;4862978;29;20032;-81
2021/03/16 02:08:01;;;;;;;24.25;20.42;;;77.00;2227.20;;;;;;4845477;29;20037;-82
2021/03/16 02:18:00;;;;;;;25.35;20.05;;;77.20;2227.20;;;;;;4880179;29;20104;-82
2021/03/16 02:21:25;;;;;;;24.55;21.10;;;77.20;2227.20;;;;;;4879750;29;20018;-82
2021/03/16 02:42:17;;;;;;;29.40;20.67;;;77.40;2227.20;;;;;;4967728;29;20038;-81
2021/03/16 02:46:00;;;;;;;24.77;18.60;;;77.40;2227.20;;;;;;4978532;29;20039;-81
2021/03/16 02:49:09;;;;;;;35.67;26.40;;;77.50;2227.20;;;;;;4902977;29;20029;-81
2021/03/16 02:53:04;;;;;;;30.77;22.77;;;77.60;2227.20;;;;;;4902503;29;20077;-82
2021/03/16 03:09:47;;;;;;;27.50;20.25;;;77.60;2227.20;;;;;;4819887;29;20071;-82
2021/03/16 03:13:06;;;;;;;32.63;22.25;;;77.70;2227.20;;;;;;4828813;29;20039;-82
2021/03/16 03:16:36;;;;;;;28.13;20.67;;;77.70;2227.20;;;;;;4799290;29;20041;-81
2021/03/16 03:20:15;;;;;;;26.20;19.67;;;77.70;2227.20;;;;;;4811414;29;20035;-82
2021/03/16 03:30:38;;;;;;;24.77;17.42;;;102.40;2227.20;;;;;;4821674;29;20226;-81
2021/03/16 03:41:53;;;;;;;21.70;13.60;;;102.50;2227.20;;;;;;4847148;29;20098;-82
2021/03/16 03:47:57;;;;;;;18.15;13.93;;;102.50;2227.20;;;;;;4847326;29;20067;-82
2021/03/16 04:01:04;;;;;;;20.92;14.95;;;102.60;2227.20;;;;;;4894973;29;20044;-82
2021/03/16 04:05:03;;;;;;;25.35;18.30;;;102.60;2227.20;;;;;;4883392;29;20018;-82
2021/03/16 04:12:07;;;;;;;16.75;13.02;;;102.60;2227.20;;;;;;4883919;29;20041;-81
2021/03/16 04:15:36;;;;;;;19.05;13.95;;;102.60;2227.20;;;;;;4867563;29;20013;-82
2021/03/16 04:18:41;;;;;;;17.67;12.48;;;102.60;2227.20;;;;;;4889368;29;20092;-82
2021/03/16 04:25:59;;;;;;;22.20;15.65;;;102.60;2227.20;;;;;;4826343;29;20102;-81
2021/03/16 04:29:38;;;;;;;18.55;12.52;;;102.60;2227.20;;;;;;4843108;29;20038;-82
2021/03/16 04:32:30;;;;;;;19.90;13.50;;;102.60;2227.20;;;;;;4827889;29;20048;-80
2021/03/16 04:35:38;;;;;;;17.27;12.13;;;102.60;2227.20;;;;;;4844838;29;20030;-82
2021/03/16 04:42:32;;;;;;;13.57;10.02;;;102.60;2227.20;;;;;;4925717;28;20045;-82
2021/03/16 04:46:09;;;;;;;15.63;10.75;;;102.60;2227.20;;;;;;4996439;28;20046;-82
2021/03/16 04:49:47;;;;;;;16.27;12.40;;;102.60;2227.20;;;;;;4999896;28;20058;-82
2021/03/16 04:53:30;;;;;;;17.52;11.50;;;102.70;2227.20;;;;;;5014678;28;20050;-81
2021/03/16 04:56:38;;;;;;;16.70;11.25;;;102.70;2227.20;;;;;;4982824;28;20038;-81
2021/03/16 05:00:08;;;;;;;16.77;11.35;;;102.70;2227.20;;;;;;4956336;29;20032;-81
2021/03/16 05:03:30;;;;;;;20.80;12.73;;;102.70;2227.20;;;;;;4956971;29;20087;-82
2021/03/16 05:06:58;;;;;;;16.95;11.65;;;102.70;2227.20;;;;;;4950046;29;20019;-81
2021/03/16 05:17:05;;;;;;;20.20;12.98;;;102.80;2227.20;;;;;;4937393;29;20019;-82
2021/03/16 05:20:28;;;;;;;20.25;14.52;;;102.80;2227.20;;;;;;4936867;29;20092;-81
2021/03/16 05:27:27;;;;;;;19.08;12.95;;;102.80;2227.20;;;;;;4937528;29;20043;-82
2021/03/16 05:30:50;;;;;;;23.40;14.75;;;102.80;2227.20;;;;;;4924690;29;20035;-81
2021/03/16 05:33:35;;;;;;;20.95;14.10;;;102.80;2227.20;;;;;;4933544;29;20102;-80
2021/03/16 05:36:01;;;;;;;22.90;15.88;;;102.80;2227.20;;;;;;4941367;28;20041;-80
2021/03/16 05:38:27;;;;;;;14.93;11.73;;;102.90;2227.20;;;;;;4968014;28;20027;-80
2021/03/16 05:40:53;;;;;;;24.92;16.92;;;102.90;2227.20;;;;;;4969923;28;20412;-80
2021/03/16 05:43:19;;;;;;;20.33;12.18;;;128.30;2252.80;;;;;;4985240;28;20030;-80
2021/03/16 05:45:46;;;;;;;20.30;13.35;;;102.90;2227.20;;;;;;4984721;28;20031;-80
2021/03/16 05:48:14;;;;;;;18.15;11.25;;;102.90;2227.20;;;;;;4970884;28;20046;-80
2021/03/16 05:50:40;;;;;;;17.10;11.32;;;102.90;2227.20;;;;;;4970605;28;20055;-80
2021/03/16 05:53:06;;;;;;;18.48;11.60;;;103.00;2227.20;;;;;;4970512;28;20030;-80
2021/03/16 05:55:33;;;;;;;16.27;11.18;;;102.90;2227.20;;;;;;4986100;28;20153;-81
2021/03/16 05:58:00;;;;;;;16.50;12.15;;;128.10;2252.80;;;;;;4970107;28;20053;-80
2021/03/16 06:00:26;;;;;;;16.20;10.50;;;103.00;2227.20;;;;;;4970341;28;20030;-81
2021/03/16 06:02:52;;;;;;;18.00;11.75;;;103.00;2227.20;;;;;;4972434;28;20030;-80
2021/03/16 06:05:18;;;;;;;37.15;21.13;;;103.10;2227.20;;;;;;4973980;28;20073;-81
2021/03/16 06:07:49;;;;;;;24.90;15.93;;;103.30;2227.20;;;;;;4991151;28;20039;-80
2021/03/16 06:10:18;;;;;;;64.50;29.42;;;103.10;2227.20;;;;;;4974576;28;20034;-81
2021/03/16 06:12:45;;;;;;;35.17;21.05;;;103.10;2227.20;;;;;;4990656;28;20026;-80
2021/03/16 06:15:16;;;;;;;64.32;31.02;;;103.20;2227.20;;;;;;4973882;28;20211;-80
2021/03/16 06:17:43;;;;;;;29.38;17.17;;;103.10;2227.20;;;;;;4973613;28;20042;-80
2021/03/16 06:20:11;;;;;;;34.65;19.88;;;103.20;2227.20;;;;;;4978945;28;20027;-80
2021/03/16 06:22:37;;;;;;;44.10;31.25;;;103.20;2227.20;;;;;;4970751;28;20027;-80
2021/03/16 06:25:05;;;;;;;44.58;30.02;;;103.20;2227.20;;;;;;4973734;28;20065;-81
2021/03/16 06:27:31;;;;;;;32.40;23.80;;;103.20;2227.20;;;;;;4973938;28;20038;-80
2021/03/16 06:29:57;;;;;;;16.92;11.52;;;103.30;2227.20;;;;;;4988385;28;20074;-80
2021/03/16 06:32:23;;;;;;;15.88;10.52;;;103.30;2227.20;;;;;;4970446;28;20026;-80
2021/03/16 06:34:59;;;;;;;18.90;12.40;;;103.30;2227.20;;;;;;4985868;28;20074;-80
2021/03/16 06:37:25;;;;;;;19.13;12.43;;;103.30;2227.20;;;;;;4972335;28;20027;-80
2021/03/16 06:39:54;;;;;;;24.48;15.70;;;103.30;2227.20;;;;;;4981992;28;20474;-80
2021/03/16 06:42:21;;;;;;;17.15;10.88;;;103.30;2227.20;;;;;;4993020;28;20089;-80
2021/03/16 06:45:04;;;;;;;20.60;12.48;;;103.30;2227.20;;;;;;4992382;28;20125;-80
2021/03/16 06:47:30;;;;;;;18.92;12.30;;;103.30;2227.20;;;;;;4991812;28;20089;-80
2021/03/16 06:49:56;;;;;;;24.05;13.57;;;103.30;2227.20;;;;;;4992556;28;20030;-81
2021/03/16 06:52:26;;;;;;;26.25;18.42;;;128.00;2252.80;;;;;;4992140;28;20026;-80
2021/03/16 06:54:52;;;;;;;22.00;14.35;;;128.00;2252.80;;;;;;4994038;28;20045;-79
2021/03/16 06:57:27;;;;;;;18.63;11.38;;;128.00;2252.80;;;;;;4989435;28;20037;-78
2021/03/16 07:00:08;;;;;;;23.85;15.20;;;128.00;2252.80;;;;;;5006773;28;20086;-78
2021/03/16 07:02:34;;;;;;;23.77;14.98;;;128.00;2252.80;;;;;;4988675;28;20030;-78
2021/03/16 07:05:00;;;;;;;20.13;14.23;;;128.00;2252.80;;;;;;4988385;28;20030;-78
2021/03/16 07:07:28;;;;;;;17.23;11.18;;;128.00;2252.80;;;;;;4987708;28;20118;-79
2021/03/16 07:10:01;;;;;;;21.83;14.93;;;128.00;2252.80;;;;;;4988740;28;20029;-79
2021/03/16 07:12:33;;;;;;;19.65;12.93;;;128.00;2252.80;;;;;;4989023;28;20018;-78
2021/03/16 07:15:00;;;;;;;22.98;14.90;;;128.00;2252.80;;;;;;4987709;28;20030;-78
2021/03/16 07:17:27;;;;;;;25.38;13.40;;;128.10;2252.80;;;;;;4988787;28;20428;-79
2021/03/16 07:20:03;;;;;;;18.67;11.90;;;128.10;2252.80;;;;;;4988835;28;20022;-78
2021/03/16 07:22:36;;;;;;;20.58;13.35;;;128.00;2252.80;;;;;;4988274;28;20073;-77
2021/03/16 07:25:08;;;;;;;21.33;12.68;;;128.10;2252.80;;;;;;4991677;28;20034;-78
2021/03/16 07:27:36;;;;;;;22.05;12.85;;;128.00;2252.80;;;;;;4991343;28;20038;-80
2021/03/16 07:30:03;;;;;;;19.95;10.90;;;128.10;2252.80;;;;;;4993025;28;20026;-80
2021/03/16 07:32:30;;;;;;;23.02;13.85;;;128.20;2252.80;;;;;;4992553;28;20022;-80
2021/03/16 07:35:00;;;;;;;19.63;11.48;;;128.10;2252.80;;;;;;4993144;28;20018;-80
2021/03/16 07:37:29;;;;;;;18.38;12.27;;;128.10;2252.80;;;;;;4992349;28;20030;-80
2021/03/16 07:39:59;;;;;;;26.90;17.23;;;128.10;2252.80;;;;;;4993884;28;20539;-80
2021/03/16 07:42:27;;;;;;;33.97;22.70;;;128.10;2252.80;;;;;;4993157;28;20406;-79
2021/03/16 07:44:55;;;;;;;116.93;60.55;;;128.10;2252.80;;;;;;4988236;28;20037;-78
2021/03/16 07:47:36;;;;;;;37.58;21.85;;;128.10;2252.80;;;;;;4974739;28;20073;-79
2021/03/16 07:50:08;;;;;;;42.20;27.70;;;128.10;2252.80;;;;;;4991631;28;20045;-79
2021/03/16 07:52:45;;;;;;;48.67;31.58;;;128.10;2252.80;;;;;;4990732;28;20026;-79
2021/03/16 07:55:23;;;;;;;30.63;20.52;;;128.10;2252.80;;;;;;4990299;28;20050;-79
2021/03/16 07:57:49;;;;;;;43.92;27.60;;;128.10;2252.80;;;;;;4989954;28;20026;-79
2021/03/16 08:00:16;;;;;;;68.03;37.80;;;128.20;2252.80;;;;;;4991757;28;20030;-79
2021/03/16 08:02:44;;;;;;;42.72;25.83;;;128.20;2252.80;;;;;;4991196;28;20024;-79
2021/03/16 08:05:17;;;;;;;53.85;30.38;;;128.20;2252.80;;;;;;4991871;28;20081;-79
2021/03/16 08:07:43;;;;;;;43.28;26.48;;;128.20;2252.80;;;;;;4991646;28;20053;-79
2021/03/16 08:10:10;;;;;;;26.05;18.02;;;128.20;2252.80;;;;;;4991620;28;20018;-79
2021/03/16 08:12:37;;;;;;;47.22;30.27;;;128.20;2252.80;;;;;;5009505;28;20027;-79
2021/03/16 08:15:15;;;;;;;34.15;23.73;;;128.30;2252.80;;;;;;4984371;28;20383;-79
2021/03/16 08:17:41;;;;;;;32.53;19.55;;;128.30;2252.80;;;;;;4977396;28;20041;-79
2021/03/16 08:20:21;;;;;;;30.77;21.52;;;128.30;2252.80;;;;;;4977743;28;20034;-79
2021/03/16 08:22:47;;;;;;;27.90;19.75;;;128.30;2252.80;;;;;;4976603;28;20042;-79
2021/03/16 08:25:16;;;;;;;23.20;18.95;;;128.30;2252.80;;;;;;4976474;28;20038;-79
2021/03/16 08:27:49;;;;;;;31.92;23.13;;;128.40;2252.80;;;;;;4991636;28;20089;-79
2021/03/16 08:30:17;;;;;;;26.00;16.90;;;128.40;2252.80;;;;;;4991965;28;20032;-79
2021/03/16 08:32:48;;;;;;;35.03;24.65;;;128.40;2252.80;;;;;;4986809;28;20101;-78
2021/03/16 08:38:59;;;;;;;29.85;22.02;;;128.50;2252.80;;;;;;4864115;29;20053;-79
2021/03/16 08:41:28;;;;;;;28.67;19.23;;;128.50;2252.80;;;;;;4858012;29;20042;-78
2021/03/16 08:44:17;;;;;;;21.30;15.77;;;128.50;2252.80;;;;;;4860109;29;20041;-79
2021/03/16 08:46:43;;;;;;;19.13;14.07;;;128.50;2252.80;;;;;;4835181;29;20045;-77
2021/03/16 08:49:14;;;;;;;27.65;20.00;;;128.50;2252.80;;;;;;4881591;28;20035;-77
2021/03/16 08:51:39;;;;;;;24.23;15.20;;;128.60;2252.80;;;;;;4961738;28;20027;-76
2021/03/16 08:54:06;;;;;;;24.23;15.73;;;128.60;2252.80;;;;;;4962261;28;20030;-77
2021/03/16 08:56:32;;;;;;;22.15;16.55;;;128.60;2252.80;;;;;;4960236;28;20046;-76
2021/03/16 08:59:03;;;;;;;21.15;14.07;;;128.60;2252.80;;;;;;4958997;28;20027;-75
2021/03/16 09:01:31;;;;;;;25.05;17.08;;;128.60;2252.80;;;;;;4974116;28;20026;-75
2021/03/16 09:04:08;;;;;;;22.58;15.02;;;128.70;2252.80;;;;;;4973709;28;20037;-77
2021/03/16 09:06:34;;;;;;;25.67;16.30;;;128.70;2252.80;;;;;;4958081;28;20038;-75
2021/03/16 09:09:00;;;;;;;22.42;16.27;;;128.80;2252.80;;;;;;4964213;28;20829;-76
2021/03/16 09:11:41;;;;;;;26.00;17.10;;;128.80;2252.80;;;;;;4975577;28;20050;-75
2021/03/16 09:14:15;;;;;;;27.88;19.85;;;128.90;2252.80;;;;;;4976599;28;20025;-74
2021/03/16 09:16:44;;;;;;;24.73;16.95;;;153.60;2252.80;;;;;;4975841;28;20114;-76
2021/03/16 09:19:16;;;;;;;30.58;19.98;;;128.90;2252.80;;;;;;4955610;28;20027;-75
2021/03/16 09:21:54;;;;;;;32.55;22.17;;;153.60;2252.80;;;;;;4958878;28;20388;-76
2021/03/16 09:24:25;;;;;;;38.08;23.27;;;153.60;2252.80;;;;;;4958866;28;20082;-76
2021/03/16 09:27:06;;;;;;;26.90;17.50;;;153.60;2252.80;;;;;;4976871;28;20027;-75
2021/03/16 09:29:34;;;;;;;28.05;17.48;;;153.60;2252.80;;;;;;4978108;28;20039;-76
2021/03/16 09:32:08;;;;;;;26.25;17.83;;;153.60;2252.80;;;;;;4956977;28;20109;-77
2021/03/16 09:34:36;;;;;;;32.42;18.55;;;153.70;2252.80;;;;;;4960607;28;20476;-77
2021/03/16 09:37:05;;;;;;;44.63;25.95;;;153.70;2252.80;;;;;;4962905;28;20127;-77
2021/03/16 09:39:31;;;;;;;26.88;17.40;;;153.70;2252.80;;;;;;4981253;28;20066;-77
2021/03/16 09:41:59;;;;;;;40.95;24.25;;;153.70;2252.80;;;;;;4969166;28;20022;-78
2021/03/16 09:48:55;;;;;;;23.33;15.57;;;153.80;2252.80;;;;;;4993065;28;20045;-79
2021/03/16 09:51:22;;;;;;;;;;;153.80;2252.80;;;;;;4985254;28;20043;-77
2021/03/16 09:53:50;;;;;;;35.60;20.90;;;153.90;2252.80;;;;;;4971054;28;19913;-78
2021/03/16 09:56:17;;;;;;;24.15;14.20;;;153.80;2252.80;;;;;;4973187;28;20480;-77
2021/03/16 09:59:14;;;;;;;25.95;17.52;;;153.80;2252.80;;;;;;4968499;28;20051;-78
2021/03/16 10:02:05;;;;;;;26.25;17.98;;;153.80;2252.80;;;;;;4993799;28;20087;-78
2021/03/16 10:04:51;;;;;;;25.08;19.15;;;153.80;2252.80;;;;;;4991608;28;20034;-77
2021/03/16 10:07:27;;;;;;;24.75;15.55;;;153.90;2252.80;;;;;;4969488;28;20023;-77
2021/03/16 10:09:53;;;;;;;29.80;17.30;;;153.80;2252.80;;;;;;4968515;28;20027;-77
2021/03/16 10:12:21;;;;;;;39.10;25.05;;;153.90;2252.80;;;;;;4972128;28;20023;-76
2021/03/16 10:15:02;;;;;;;54.90;29.65;;;153.90;2252.80;;;;;;4987673;28;20031;-78
2021/03/16 10:17:30;;;;;;;22.05;15.55;;;154.00;2252.80;;;;;;4990992;28;20054;-77
2021/03/16 10:19:59;;;;;;;27.77;19.58;;;153.90;2252.80;;;;;;4992094;28;20029;-77
2021/03/16 10:22:33;;;;;;;28.90;19.02;;;154.00;2252.80;;;;;;4992936;28;20031;-77
2021/03/16 10:25:10;;;;;;;30.90;19.60;;;154.00;2252.80;;;;;;4993963;28;20030;-78
2021/03/16 10:27:36;;;;;;;25.20;16.80;;;154.00;2252.80;;;;;;4994164;28;20058;-78
2021/03/16 10:30:09;;;;;;;31.98;21.77;;;154.00;2252.80;;;;;;5011125;28;20023;-77
2021/03/16 10:32:35;;;;;;;24.65;16.88;;;154.00;2252.80;;;;;;4976093;28;20031;-78
2021/03/16 10:35:01;;;;;;;36.08;22.30;;;154.00;2252.80;;;;;;5009727;28;20027;-77
2021/03/16 10:37:27;;;;;;;23.73;17.65;;;154.10;2252.80;;;;;;4991888;28;20059;-77
2021/03/16 10:39:59;;;;;;;41.67;24.45;;;154.10;2252.80;;;;;;4991217;28;20106;-77
2021/03/16 10:42:26;;;;;;;25.50;15.98;;;154.10;2252.80;;;;;;4976513;28;20077;-76
2021/03/16 10:44:52;;;;;;;46.30;27.73;;;154.20;2252.80;;;;;;4990343;28;20062;-76
2021/03/16 10:47:19;;;;;;;29.58;15.18;;;154.20;2252.80;;;;;;4993615;28;20121;-78
2021/03/16 10:50:28;;;;;;;17.73;13.32;;;154.30;2252.80;;;;;;5005485;28;20015;-79
2021/03/16 10:52:54;;;;;;;31.38;19.55;;;154.30;2252.80;;;;;;4979023;28;20035;-76
2021/03/16 10:55:20;;;;;;;29.67;18.35;;;154.30;2252.80;;;;;;4970713;28;20014;-78
2021/03/16 10:57:48;;;;;;;36.65;22.30;;;154.30;2252.80;;;;;;4947597;28;20031;-79
2021/03/16 11:00:21;;;;;;;26.63;16.20;;;154.40;2252.80;;;;;;4980922;28;20067;-78
2021/03/16 11:02:47;;;;;;;27.45;17.67;;;154.30;2252.80;;;;;;4980059;28;20015;-78
2021/03/16 11:05:15;;;;;;;17.35;12.60;;;154.30;2252.80;;;;;;4978878;28;20026;-77
2021/03/16 11:07:43;;;;;;;20.95;14.45;;;154.30;2252.80;;;;;;4997105;28;20086;-78
2021/03/16 11:10:39;;;;;;;14.02;10.93;;;154.30;2252.80;;;;;;4979174;28;20019;-78
2021/03/16 11:13:07;;;;;;;25.13;16.70;;;154.30;2252.80;;;;;;4995095;28;20019;-77
2021/03/16 11:15:33;;;;;;;22.17;15.13;;;154.30;2252.80;;;;;;4966451;28;20027;-76
2021/03/16 11:17:58;;;;;;;47.97;29.52;;;154.30;2252.80;;;;;;4962446;28;20038;-77
2021/03/16 11:20:24;;;;;;;24.98;16.00;;;154.30;2252.80;;;;;;4977794;28;20034;-75
2021/03/16 11:22:51;;;;;;;23.77;17.45;;;154.30;2252.80;;;;;;4961168;28;20031;-75
2021/03/16 11:25:16;;;;;;;29.52;19.25;;;154.30;2252.80;;;;;;4961738;28;20121;-74
2021/03/16 11:27:42;;;;;;;29.38;20.50;;;154.30;2252.80;;;;;;4961310;28;20118;-76
2021/03/16 11:30:09;;;;;;;16.52;12.10;;;154.20;2252.80;;;;;;4979917;28;20042;-75
2021/03/16 11:32:36;;;;;;;17.38;13.55;;;154.20;2252.80;;;;;;4964770;28;20031;-76
2021/03/16 11:35:03;;;;;;;20.60;14.98;;;154.30;2252.80;;;;;;4963547;28;20502;-74
2021/03/16 11:37:56;;;;;;;19.88;14.73;;;154.30;2252.80;;;;;;4976603;28;20031;-77
2021/03/16 11:40:22;;;;;;;26.00;17.25;;;154.30;2252.80;;;;;;4959145;28;20079;-77
2021/03/16 11:42:49;;;;;;;29.63;18.83;;;154.40;2252.80;;;;;;4975231;28;20058;-76
2021/03/16 11:45:21;;;;;;;32.30;21.20;;;154.40;2252.80;;;;;;4975263;28;20015;-77
2021/03/16 11:47:48;;;;;;;19.73;15.07;;;154.30;2252.80;;;;;;4993114;28;20094;-78
2021/03/16 11:50:15;;;;;;;31.35;17.70;;;154.30;2252.80;;;;;;4974383;28;20054;-75
2021/03/16 11:52:41;;;;;;;38.80;25.65;;;154.40;2252.80;;;;;;4966350;28;20042;-76
2021/03/16 11:55:08;;;;;;;37.15;21.63;;;154.50;2252.80;;;;;;4957448;28;20528;-75
2021/03/16 11:57:33;;;;;;;17.70;12.57;;;154.40;2252.80;;;;;;4962991;28;20023;-75
2021/03/16 11:59:59;;;;;;;37.47;23.95;;;154.40;2252.80;;;;;;4965535;28;20046;-77
2021/03/16 12:02:25;;;;;;;26.98;18.17;;;154.50;2252.80;;;;;;4954100;28;20031;-76
2021/03/16 12:04:51;;;;;;;31.35;20.48;;;154.50;2252.80;;;;;;4963184;28;20023;-77
2021/03/16 12:07:18;;;;;;;28.05;19.00;;;154.50;2252.80;;;;;;4954207;28;20039;-76
2021/03/16 12:09:44;;;;;;;26.08;15.73;;;154.50;2252.80;;;;;;4947510;29;20031;-76
2021/03/16 12:12:10;;;;;;;21.52;15.68;;;154.50;2252.80;;;;;;4962332;29;20034;-75
2021/03/16 12:14:37;;;;;;;26.67;19.55;;;154.40;2252.80;;;;;;4962955;29;20033;-77
2021/03/16 12:17:03;;;;;;;28.58;18.98;;;154.50;2252.80;;;;;;4963538;29;20487;-75
2021/03/16 12:19:29;;;;;;;24.52;18.52;;;154.50;2252.80;;;;;;4967144;29;20051;-77
2021/03/16 12:22:00;;;;;;;23.25;17.15;;;154.50;2252.80;;;;;;4971863;29;20108;-79
2021/03/16 12:24:32;;;;;;;25.15;17.95;;;154.50;2252.80;;;;;;4971888;29;20047;-77
2021/03/16 12:27:07;;;;;;;30.35;20.38;;;154.50;2252.80;;;;;;4971047;28;20043;-78
2021/03/16 12:29:34;;;;;;;20.27;13.75;;;154.50;2252.80;;;;;;4955461;29;20086;-78
2021/03/16 12:32:00;;;;;;;25.63;17.55;;;154.50;2252.80;;;;;;4966331;29;20366;-77
2021/03/16 12:34:26;;;;;;;21.17;14.13;;;154.50;2252.80;;;;;;4975956;28;20031;-77
2021/03/16 12:36:53;;;;;;;28.17;19.73;;;154.50;2252.80;;;;;;4951418;29;20518;-77
2021/03/16 12:39:19;;;;;;;25.67;18.95;;;179.20;2252.80;;;;;;4957746;28;20133;-78
2021/03/16 12:41:45;;;;;;;27.70;19.08;;;179.20;2252.80;;;;;;4961695;28;20035;-77
2021/03/16 12:44:11;;;;;;;27.52;19.33;;;179.20;2252.80;;;;;;4972283;28;20370;-76
2021/03/16 12:46:36;;;;;;;27.88;19.88;;;179.30;2252.80;;;;;;4965492;28;20392;-74
2021/03/16 12:49:02;;;;;;;24.23;17.13;;;179.30;2252.80;;;;;;4980814;28;20178;-76
2021/03/16 12:51:28;;;;;;;27.02;21.48;;;179.30;2252.80;;;;;;4985308;28;20034;-76
2021/03/16 12:53:55;;;;;;;21.55;15.93;;;179.30;2252.80;;;;;;4978835;28;20108;-75
2021/03/16 12:56:21;;;;;;;26.92;18.75;;;179.30;2252.80;;;;;;4984927;28;20432;-76
2021/03/16 12:58:47;;;;;;;25.08;19.10;;;179.40;2252.80;;;;;;4983886;28;20030;-74
2021/03/16 13:01:12;;;;;;;26.83;19.90;;;179.40;2252.80;;;;;;4981823;28;20113;-74
2021/03/16 13:03:38;;;;;;;25.67;17.73;;;179.40;2252.80;;;;;;5003074;28;20030;-76
2021/03/16 13:06:04;;;;;;;18.65;13.48;;;179.40;2252.80;;;;;;4986234;28;20094;-76
2021/03/16 13:08:30;;;;;;;24.05;20.58;;;179.40;2252.80;;;;;;4985718;28;20034;-75
2021/03/16 13:10:56;;;;;;;21.40;15.93;;;179.40;2227.20;;;;;;4986545;28;20030;-75
2021/03/16 13:13:22;;;;;;;32.30;24.67;;;179.40;2227.20;;;;;;4985615;28;20169;-76
2021/03/16 13:15:47;;;;;;;26.08;18.10;;;179.50;2227.20;;;;;;4985532;28;20030;-75
2021/03/16 13:18:13;;;;;;;25.10;18.20;;;179.50;2124.80;;;;;;4986993;28;20023;-76
2021/03/16 13:20:39;;;;;;;43.92;29.40;;;179.50;2201.60;;;;;;4986498;28;20029;-77
2021/03/16 13:23:05;;;;;;;30.85;19.83;;;179.60;2252.80;;;;;;4989917;28;20026;-75
2021/03/16 13:25:31;;;;;;;18.48;13.30;;;179.60;2150.40;;;;;;4988233;28;20562;-76
2021/03/16 13:28:02;;;;;;;23.50;17.58;;;179.60;2150.40;;;;;;4989092;28;20054;-76
2021/03/16 14:12:30;;;;;;;27.92;18.98;;;179.80;2099.20;;;;;;4954434;26;20141;-80
2021/03/16 15:08:47;;;;;;;21.50;16.55;;;179.40;2252.80;;;;;;5530613;23;20097;-79
2021/03/16 15:11:13;;;;;;;34.20;22.73;;;179.40;2252.80;;;;;;4972702;28;20035;-78
2021/03/16 15:16:45;;;;;;;36.55;23.65;;;154.50;2252.80;;;;;;5077896;23;20058;-80
2021/03/16 15:19:12;;;;;;;26.73;20.58;;;179.50;2252.80;;;;;;5018546;28;20065;-79
2021/03/16 15:21:58;;;;;;;30.55;22.80;;;179.50;2252.80;;;;;;5002865;28;20057;-79
2021/03/16 15:24:41;;;;;;;32.65;22.90;;;179.50;2252.80;;;;;;5000030;28;20031;-81
2021/03/16 15:27:12;;;;;;;29.27;23.17;;;179.60;2252.80;;;;;;5019635;28;20030;-81
2021/03/16 15:29:38;;;;;;;23.60;18.55;;;179.60;2252.80;;;;;;4998104;28;20038;-79
2021/03/16 15:32:06;;;;;;;33.08;24.83;;;179.50;2252.80;;;;;;4998704;28;20060;-81
2021/03/16 15:34:32;;;;;;;29.70;22.85;;;179.60;2252.80;;;;;;4998521;28;20022;-81
2021/03/16 15:36:58;;;;;;;24.95;19.17;;;179.60;2252.80;;;;;;4979973;28;20052;-80
2021/03/16 15:39:28;;;;;;;34.05;29.00;;;179.60;2252.80;;;;;;4994955;28;20026;-80
2021/03/16 15:41:54;;;;;;;22.92;19.23;;;179.60;2252.80;;;;;;4979047;28;20062;-79
2021/03/16 15:44:20;;;;;;;22.80;19.83;;;179.60;2252.80;;;;;;4994426;28;20026;-80
2021/03/16 15:46:46;;;;;;;27.95;22.88;;;179.70;2252.80;;;;;;4981896;28;20026;-80
2021/03/16 15:49:12;;;;;;;19.63;16.17;;;179.70;2252.80;;;;;;4997365;28;20022;-79
2021/03/16 15:51:41;;;;;;;30.25;20.58;;;179.70;2252.80;;;;;;4990584;28;20022;-79
2021/03/16 15:54:08;;;;;;;23.95;17.13;;;179.70;2252.80;;;;;;4993226;28;20034;-80
2021/03/16 15:56:34;;;;;;;29.13;21.60;;;179.70;2252.80;;;;;;4998600;28;20040;-80
2021/03/16 15:59:00;;;;;;;29.20;22.52;;;179.60;2252.80;;;;;;4996690;28;20046;-81
2021/03/16 16:01:27;;;;;;;28.95;22.48;;;179.60;2252.80;;;;;;4994891;28;20388;-79
2021/03/16 16:03:53;;;;;;;32.70;24.40;;;179.60;2252.80;;;;;;4991788;28;20030;-76
2021/03/16 16:06:20;;;;;;;34.60;22.52;;;179.60;2252.80;;;;;;4979304;28;20080;-77
2021/03/16 16:08:46;;;;;;;22.98;16.67;;;179.60;2252.80;;;;;;4983767;28;20019;-80
2021/03/16 16:11:13;;;;;;;26.23;19.17;;;179.60;2252.80;;;;;;4985014;28;20146;-78
2021/03/16 16:13:40;;;;;;;26.25;19.80;;;179.60;2252.80;;;;;;4987851;28;20050;-79
2021/03/16 16:16:06;;;;;;;26.45;21.55;;;179.60;2252.80;;;;;;4987563;28;20032;-79
2021/03/16 16:18:34;;;;;;;30.20;23.77;;;179.60;2252.80;;;;;;5006473;28;20077;-80
2021/03/16 16:21:00;;;;;;;27.05;19.77;;;179.50;2252.80;;;;;;4989759;28;20085;-80
2021/03/16 16:23:25;;;;;;;31.42;25.88;;;179.60;2252.80;;;;;;4987921;28;20074;-79
2021/03/16 16:25:51;;;;;;;24.73;18.50;;;179.60;2252.80;;;;;;4987504;28;20027;-78
2021/03/16 16:28:18;;;;;;;24.42;18.40;;;179.60;2252.80;;;;;;4981307;28;20088;-77
2021/03/16 16:30:44;;;;;;;25.88;19.38;;;179.60;2252.80;;;;;;4976520;28;20031;-77
2021/03/16 16:33:11;;;;;;;28.63;21.00;;;179.60;2252.80;;;;;;4976533;28;20428;-77
2021/03/16 16:35:37;;;;;;;26.80;20.48;;;179.60;2252.80;;;;;;4978555;28;20035;-77
2021/03/16 16:38:04;;;;;;;29.23;20.33;;;179.60;2252.80;;;;;;4976957;28;20553;-77
2021/03/16 16:40:31;;;;;;;20.13;16.63;;;179.60;2252.80;;;;;;4961092;28;20107;-77